createdAt,value
2018-09-21T00:01:20.821Z,95691.00
2018-09-21T00:03:56.967Z,95684.00
2018-09-21T00:06:27.308Z,95677.00
2018-09-21T00:08:57.890Z,95682.00
2018-09-21T00:11:28.966Z,95684.00
2018-09-21T00:13:59.532Z,95682.00
2018-09-21T00:16:29.916Z,95680.00
2018-09-21T00:19:07.136Z,95675.00
2018-09-21T00:21:37.946Z,95679.00
2018-09-21T00:24:12.057Z,95679.00
2018-09-21T00:26:42.553Z,95688.00
2018-09-21T00:29:12.943Z,95671.00
2018-09-21T00:31:43.307Z,95672.00
2018-09-21T00:34:13.689Z,95669.00
2018-09-21T00:36:44.310Z,95665.00
2018-09-21T00:39:15.317Z,95661.00
2018-09-21T00:41:46.168Z,95655.00
2018-09-21T00:44:16.836Z,95651.00
2018-09-21T00:46:47.498Z,95649.00
2018-09-21T00:49:17.933Z,95647.00
2018-09-21T00:51:48.426Z,95648.00
2018-09-21T00:54:19.024Z,95648.00
2018-09-21T00:56:49.440Z,95644.00
2018-09-21T00:59:20.026Z,95642.00
2018-09-21T01:01:50.469Z,95639.00
2018-09-21T01:04:21.160Z,95628.00
2018-09-21T01:06:51.512Z,95632.00
2018-09-21T01:09:22.146Z,95625.00
2018-09-21T01:11:52.738Z,95630.00
2018-09-21T01:14:23.362Z,95628.00
2018-09-21T01:16:53.754Z,95625.00
2018-09-21T01:19:27.819Z,95630.00
2018-09-21T01:22:03.563Z,95636.00
2018-09-21T01:24:34.647Z,95627.00
2018-09-21T01:27:05.119Z,95627.00
2018-09-21T01:29:35.726Z,95626.00
2018-09-21T01:32:06.351Z,95625.00
2018-09-21T01:34:36.857Z,95626.00
2018-09-21T01:37:07.419Z,95627.00
2018-09-21T01:39:37.948Z,95639.00
2018-09-21T01:42:08.530Z,95625.00
2018-09-21T01:44:40.048Z,95624.00
2018-09-21T01:47:11.065Z,95622.00
2018-09-21T01:49:41.493Z,95614.00
2018-09-21T01:52:11.943Z,95614.00
2018-09-21T01:54:42.474Z,95610.00
2018-09-21T01:57:13.570Z,95619.00
2018-09-21T01:59:43.958Z,95607.00
2018-09-21T02:02:14.382Z,95606.00
2018-09-21T02:04:44.758Z,95601.00
2018-09-21T02:07:15.022Z,95599.00
2018-09-21T02:09:45.758Z,95604.00
2018-09-21T02:12:16.172Z,95592.00
2018-09-21T02:14:46.644Z,95606.00
2018-09-21T02:17:16.903Z,95602.00
2018-09-21T02:19:47.732Z,95608.00
2018-09-21T02:22:21.311Z,95593.00
2018-09-21T02:24:51.938Z,95597.00
2018-09-21T02:27:22.230Z,95597.00
2018-09-21T02:29:52.598Z,95598.00
2018-09-21T02:32:22.901Z,95586.00
2018-09-21T02:34:53.374Z,95585.00
2018-09-21T02:37:23.752Z,95582.00
2018-09-21T02:39:54.176Z,95578.00
2018-09-21T02:42:24.585Z,95579.00
2018-09-21T02:44:55.174Z,95578.00
2018-09-21T02:47:26.074Z,95578.00
2018-09-21T02:49:56.518Z,95480.00
2018-09-21T02:52:27.224Z,95576.00
2018-09-21T02:54:57.631Z,95568.00
2018-09-21T02:57:28.144Z,95575.00
2018-09-21T03:00:00.281Z,95580.00
2018-09-21T03:02:30.622Z,95567.00
2018-09-21T03:05:01.529Z,95559.00
2018-09-21T03:07:32.057Z,95568.00
2018-09-21T03:10:03.098Z,95570.00
2018-09-21T03:12:33.551Z,95570.00
2018-09-21T03:15:04.030Z,95558.00
2018-09-21T03:17:34.518Z,95550.00
2018-09-21T03:20:05.110Z,95554.00
2018-09-21T03:22:35.582Z,95553.00
2018-09-21T03:25:06.318Z,95548.00
2018-09-21T03:27:37.209Z,95544.00
2018-09-21T03:30:07.662Z,95544.00
2018-09-21T03:32:38.088Z,95545.00
2018-09-21T03:35:08.871Z,95542.00
2018-09-21T03:37:39.225Z,95547.00
2018-09-21T03:40:09.846Z,95544.00
2018-09-21T03:42:40.264Z,95540.00
2018-09-21T03:45:11.032Z,95537.00
2018-09-21T03:47:41.321Z,95535.00
2018-09-21T03:50:11.537Z,95531.00
2018-09-21T03:52:42.004Z,95533.00
2018-09-21T03:55:12.482Z,95535.00
2018-09-21T03:57:42.731Z,95533.00
2018-09-21T04:00:13.118Z,95525.00
2018-09-21T04:02:43.701Z,95423.00
2018-09-21T04:05:14.055Z,95517.00
2018-09-21T04:07:44.361Z,95517.00
2018-09-21T04:10:14.670Z,95514.00
2018-09-21T04:12:44.950Z,95520.00
2018-09-21T04:15:15.214Z,95515.00
2018-09-21T04:17:45.558Z,95519.00
2018-09-21T04:20:15.827Z,95518.00
2018-09-21T04:22:53.752Z,95507.00
2018-09-21T04:25:24.023Z,95508.00
2018-09-21T04:27:55.282Z,95512.00
2018-09-21T04:30:26.285Z,95517.00
2018-09-21T04:32:57.592Z,95504.00
2018-09-21T04:35:28.039Z,95507.00
2018-09-21T04:37:58.512Z,95507.00
2018-09-21T04:40:28.814Z,95509.00
2018-09-21T04:42:59.190Z,95515.00
2018-09-21T04:45:29.602Z,95502.00
2018-09-21T04:48:00.055Z,95502.00
2018-09-21T04:50:30.355Z,95514.00
2018-09-21T04:53:01.066Z,95510.00
2018-09-21T04:55:31.355Z,95499.00
2018-09-21T04:58:02.134Z,95499.00
2018-09-21T05:00:32.522Z,95502.00
2018-09-21T05:03:03.074Z,95497.00
2018-09-21T05:05:33.390Z,95503.00
2018-09-21T05:08:04.031Z,95505.00
2018-09-21T05:10:34.374Z,95507.00
2018-09-21T05:13:04.750Z,95506.00
2018-09-21T05:15:35.315Z,95506.00
2018-09-21T05:18:05.758Z,95505.00
2018-09-21T05:20:36.635Z,95502.00
2018-09-21T05:23:10.918Z,95508.00
2018-09-21T05:25:41.189Z,95513.00
2018-09-21T05:28:11.873Z,95505.00
2018-09-21T05:30:42.205Z,95510.00
2018-09-21T05:33:13.328Z,95505.00
2018-09-21T05:35:43.682Z,95508.00
2018-09-21T05:38:14.090Z,95501.00
2018-09-21T05:40:44.414Z,95512.00
2018-09-21T05:43:14.665Z,95508.00
2018-09-21T05:45:44.943Z,95514.00
2018-09-21T05:48:15.256Z,95506.00
2018-09-21T05:50:45.541Z,95505.00
2018-09-21T05:53:15.933Z,95508.00
2018-09-21T05:55:46.291Z,95506.00
2018-09-21T05:58:16.574Z,95511.00
2018-09-21T06:00:46.852Z,95498.00
2018-09-21T06:03:17.370Z,95503.00
2018-09-21T06:05:47.881Z,95499.00
2018-09-21T06:08:18.334Z,95491.00
2018-09-21T06:10:48.601Z,95493.00
2018-09-21T06:13:18.952Z,95492.00
2018-09-21T06:15:49.274Z,95488.00
2018-09-21T06:18:21.735Z,95490.00
2018-09-21T06:20:52.380Z,95500.00
2018-09-21T06:23:23.549Z,95486.00
2018-09-21T06:25:54.993Z,95498.00
2018-09-21T06:28:27.273Z,95488.00
2018-09-21T06:30:58.470Z,95488.00
2018-09-21T06:33:29.303Z,95487.00
2018-09-21T06:36:05.467Z,95489.00
2018-09-21T06:38:42.474Z,95486.00
2018-09-21T06:41:14.055Z,95480.00
2018-09-21T06:43:49.549Z,95481.00
2018-09-21T06:46:21.674Z,95477.00
2018-09-21T06:48:52.078Z,95478.00
2018-09-21T06:51:22.464Z,95478.00
2018-09-21T06:53:53.024Z,95485.00
2018-09-21T06:56:24.989Z,95478.00
2018-09-21T06:58:55.430Z,95473.00
2018-09-21T07:01:25.924Z,95475.00
2018-09-21T07:03:57.058Z,95482.00
2018-09-21T07:06:27.434Z,95478.00
2018-09-21T07:08:58.056Z,95474.00
2018-09-21T07:11:28.581Z,95467.00
2018-09-21T07:13:59.874Z,95463.00
2018-09-21T07:16:30.421Z,95462.00
2018-09-21T07:19:00.770Z,95466.00
2018-09-21T07:21:31.195Z,95464.00
2018-09-21T07:24:31.818Z,95459.00
2018-09-21T07:27:04.413Z,95452.00
2018-09-21T07:29:34.881Z,95453.00
2018-09-21T07:32:05.373Z,95452.00
2018-09-21T07:34:35.740Z,95451.00
2018-09-21T07:37:06.045Z,95372.00
2018-09-21T07:39:36.534Z,95484.00
2018-09-21T07:42:06.678Z,95447.00
2018-09-21T07:44:37.165Z,95442.00
2018-09-21T07:47:07.435Z,95441.00
2018-09-21T07:49:37.744Z,95439.00
2018-09-21T07:52:08.012Z,95434.00
2018-09-21T07:54:39.532Z,95435.00
2018-09-21T07:57:10.031Z,95435.00
2018-09-21T07:59:40.352Z,95432.00
2018-09-21T08:02:10.853Z,95427.00
2018-09-21T08:04:41.228Z,95434.00
2018-09-21T08:07:11.697Z,95430.00
2018-09-21T08:09:42.018Z,95427.00
2018-09-21T08:12:12.373Z,95436.00
2018-09-21T08:14:42.680Z,95424.00
2018-09-21T08:17:13.390Z,95430.00
2018-09-21T08:19:43.866Z,95427.00
2018-09-21T08:22:14.558Z,95425.00
2018-09-21T08:24:44.913Z,95426.00
2018-09-21T08:27:16.991Z,95437.00
2018-09-21T08:29:47.745Z,95428.00
2018-09-21T08:32:18.073Z,95423.00
2018-09-21T08:34:48.420Z,95410.00
2018-09-21T08:37:18.911Z,95413.00
2018-09-21T08:39:49.204Z,95405.00
2018-09-21T08:42:19.502Z,95413.00
2018-09-21T08:44:49.883Z,95398.00
2018-09-21T08:47:20.195Z,95400.00
2018-09-21T08:49:50.813Z,95406.00
2018-09-21T08:52:21.087Z,95395.00
2018-09-21T08:54:51.612Z,95403.00
2018-09-21T08:57:21.902Z,95404.00
2018-09-21T08:59:52.266Z,95396.00
2018-09-21T09:02:22.705Z,95399.00
2018-09-21T09:04:53.039Z,95400.00
2018-09-21T09:07:23.714Z,95398.00
2018-09-21T09:09:54.174Z,95396.00
2018-09-21T09:12:24.654Z,95392.00
2018-09-21T09:14:55.055Z,95397.00
2018-09-21T09:17:25.450Z,95403.00
2018-09-21T09:19:56.058Z,95392.00
2018-09-21T09:22:26.363Z,95395.00
2018-09-21T09:24:56.827Z,95397.00
2018-09-21T09:27:27.626Z,95403.00
2018-09-21T09:29:58.399Z,95396.00
2018-09-21T09:32:28.713Z,95389.00
2018-09-21T09:34:59.665Z,95392.00
2018-09-21T09:37:30.145Z,95385.00
2018-09-21T09:40:00.795Z,95384.00
2018-09-21T09:42:31.850Z,95381.00
2018-09-21T09:45:02.356Z,95378.00
2018-09-21T09:47:33.514Z,95384.00
2018-09-21T09:50:03.936Z,95377.00
2018-09-21T09:52:34.419Z,95371.00
2018-09-21T09:55:05.601Z,95363.00
2018-09-21T09:57:36.025Z,95356.00
2018-09-21T10:00:08.557Z,95359.00
2018-09-21T10:02:39.701Z,95358.00
2018-09-21T10:05:11.709Z,95354.00
2018-09-21T10:07:50.266Z,95351.00
2018-09-21T10:10:24.349Z,95353.00
2018-09-21T10:12:58.430Z,95352.00
2018-09-21T10:15:29.249Z,95353.00
2018-09-21T10:18:00.618Z,95359.00
2018-09-21T10:20:30.942Z,95349.00
2018-09-21T10:23:01.388Z,95358.00
2018-09-21T10:25:32.306Z,95352.00
2018-09-21T10:28:03.233Z,95369.00
2018-09-21T10:30:36.287Z,95363.00
2018-09-21T10:33:08.161Z,95339.00
2018-09-21T10:35:39.066Z,95346.00
2018-09-21T10:38:09.529Z,95347.00
2018-09-21T10:40:39.867Z,95348.00
2018-09-21T10:43:10.925Z,95343.00
2018-09-21T10:45:41.176Z,95335.00
2018-09-21T10:48:11.742Z,95329.00
2018-09-21T10:50:42.182Z,95334.00
2018-09-21T10:53:12.997Z,95327.00
2018-09-21T10:55:43.520Z,95331.00
2018-09-21T10:58:14.394Z,95333.00
2018-09-21T11:00:45.829Z,95334.00
2018-09-21T11:03:16.210Z,95330.00
2018-09-21T11:05:46.793Z,95334.00
2018-09-21T11:08:17.154Z,95339.00
2018-09-21T11:10:47.642Z,95333.00
2018-09-21T11:13:18.151Z,95328.00
2018-09-21T11:15:48.672Z,95326.00
2018-09-21T11:18:19.325Z,95327.00
2018-09-21T11:20:49.969Z,95325.00
2018-09-21T11:23:20.470Z,95314.00
2018-09-21T11:25:51.438Z,95312.00
2018-09-21T11:28:21.974Z,95310.00
2018-09-21T11:30:52.647Z,95304.00
2018-09-21T11:33:23.310Z,95293.00
2018-09-21T11:36:16.253Z,95311.00
2018-09-21T11:40:16.368Z,95299.00
2018-09-21T11:42:46.861Z,95300.00
2018-09-21T11:45:17.267Z,95299.00
2018-09-21T11:47:47.994Z,95296.00
2018-09-21T11:50:18.631Z,95275.00
2018-09-21T11:52:49.271Z,95301.00
2018-09-21T11:55:20.750Z,95301.00
2018-09-21T11:57:52.668Z,95293.00
2018-09-21T12:00:23.976Z,95302.00
2018-09-21T12:02:55.128Z,95299.00
2018-09-21T12:05:26.419Z,95293.00
2018-09-21T12:07:56.991Z,95296.00
2018-09-21T12:10:27.300Z,95298.00
2018-09-21T12:12:57.645Z,95304.00
2018-09-21T12:15:28.218Z,95296.00
2018-09-21T12:18:09.615Z,95292.00
2018-09-21T12:20:48.221Z,95300.00
2018-09-21T12:26:30.170Z,95291.00
2018-09-21T12:29:03.862Z,95285.00
2018-09-21T12:31:34.429Z,95280.00
2018-09-21T12:34:11.034Z,95287.00
2018-09-21T12:36:41.488Z,95278.00
2018-09-21T12:39:14.037Z,95268.00
2018-09-21T12:41:44.782Z,95280.00
2018-09-21T12:44:19.762Z,95277.00
2018-09-21T12:46:50.172Z,95282.00
2018-09-21T12:49:21.108Z,95266.00
2018-09-21T12:51:51.650Z,95271.00
2018-09-21T12:54:23.502Z,95271.00
2018-09-21T12:57:02.802Z,95271.00
2018-09-21T12:59:34.491Z,95262.00
2018-09-21T13:02:10.240Z,95267.00
2018-09-21T13:04:40.927Z,95272.00
2018-09-21T13:07:11.653Z,95264.00
2018-09-21T13:09:42.210Z,95261.00
2018-09-21T13:12:13.198Z,95275.00
2018-09-21T13:14:43.581Z,95267.00
2018-09-21T13:17:14.030Z,95260.00
2018-09-21T13:19:44.578Z,95263.00
2018-09-21T13:22:15.118Z,95246.00
2018-09-21T13:24:45.512Z,95241.00
2018-09-21T13:27:17.873Z,95232.00
2018-09-21T13:29:48.630Z,95230.00
2018-09-21T13:32:19.426Z,95230.00
2018-09-21T13:34:50.836Z,95242.00
2018-09-21T13:37:24.149Z,95253.00
2018-09-21T13:39:54.889Z,95251.00
2018-09-21T13:42:25.350Z,95241.00
2018-09-21T13:44:57.735Z,95258.00
2018-09-21T13:47:31.426Z,95269.00
2018-09-21T13:50:02.961Z,95310.00
2018-09-21T13:52:33.703Z,95338.00
2018-09-21T13:55:04.101Z,95341.00
2018-09-21T13:57:35.087Z,95367.00
2018-09-21T14:00:06.690Z,95340.00
2018-09-21T14:02:37.214Z,95348.00
2018-09-21T14:05:08.430Z,95346.00
2018-09-21T14:07:39.360Z,95329.00
2018-09-21T14:10:10.773Z,95318.00
2018-09-21T14:12:41.976Z,95313.00
2018-09-21T14:15:13.723Z,95312.00
2018-09-21T14:17:45.450Z,95309.00
2018-09-21T14:20:19.626Z,95305.00
2018-09-21T14:22:57.633Z,95307.00
2018-09-21T14:25:28.874Z,95298.00
2018-09-21T14:27:59.320Z,95293.00
2018-09-21T14:30:29.750Z,95291.00
2018-09-21T14:33:00.126Z,95288.00
2018-09-21T14:35:30.473Z,95295.00
2018-09-21T14:38:01.357Z,95302.00
2018-09-21T14:40:31.694Z,95313.00
2018-09-21T14:43:03.000Z,95305.00
2018-09-21T14:45:37.739Z,95306.00
2018-09-21T14:48:09.420Z,95300.00
2018-09-21T14:50:39.955Z,95303.00
2018-09-21T14:53:10.386Z,95339.00
2018-09-21T14:55:41.509Z,95333.00
2018-09-21T14:58:12.443Z,95318.00
2018-09-21T15:00:42.848Z,95334.00
2018-09-21T15:03:14.131Z,95325.00
2018-09-21T15:05:44.685Z,95320.00
2018-09-21T15:08:15.055Z,95313.00
2018-09-21T15:10:45.631Z,95311.00
2018-09-21T15:13:16.316Z,95309.00
2018-09-21T15:15:46.609Z,95310.00
2018-09-21T15:18:16.986Z,95310.00
2018-09-21T15:20:47.311Z,95317.00
2018-09-21T15:23:17.862Z,95316.00
2018-09-21T15:25:48.265Z,95306.00
2018-09-21T15:28:18.829Z,95303.00
2018-09-21T15:30:49.115Z,95306.00
2018-09-21T15:33:19.510Z,95298.00
2018-09-21T15:35:49.862Z,95292.00
2018-09-21T15:38:20.767Z,95293.00
2018-09-21T15:40:53.104Z,95288.00
2018-09-21T15:43:31.017Z,95282.00
2018-09-21T15:46:15.407Z,95288.00
2018-09-21T15:48:48.497Z,95295.00
2018-09-21T15:51:18.775Z,95283.00
2018-09-21T15:53:56.016Z,95296.00
2018-09-21T15:56:32.861Z,95279.00
2018-09-21T15:59:04.080Z,95285.00
2018-09-21T16:01:35.076Z,95288.00
2018-09-21T16:04:05.785Z,95289.00
2018-09-21T16:06:38.134Z,95298.00
2018-09-21T16:09:09.205Z,95295.00
2018-09-21T16:11:50.993Z,95295.00
2018-09-21T16:14:25.959Z,95289.00
2018-09-21T16:17:00.027Z,95277.00
2018-09-21T16:19:31.014Z,95286.00
2018-09-21T16:22:03.104Z,95289.00
2018-09-21T16:24:34.024Z,95295.00
2018-09-21T16:27:05.842Z,95311.00
2018-09-21T16:29:38.501Z,95303.00
2018-09-21T16:32:09.943Z,95309.00
2018-09-21T16:34:41.397Z,95374.00
2018-09-21T16:37:13.198Z,95379.00
2018-09-21T16:39:44.102Z,95418.00
2018-09-21T16:42:18.033Z,95426.00
2018-09-21T16:44:50.450Z,95466.00
2018-09-21T16:47:23.947Z,95481.00
2018-09-21T16:50:03.031Z,95502.00
2018-09-21T16:52:49.463Z,95514.00
2018-09-21T16:55:23.657Z,95544.00
2018-09-21T16:57:54.890Z,95565.00
2018-09-21T17:00:29.007Z,95553.00
2018-09-21T17:03:01.994Z,95582.00
2018-09-21T17:05:32.469Z,95580.00
2018-09-21T17:08:03.289Z,95594.00
2018-09-21T17:10:35.066Z,95594.00
2018-09-21T17:13:06.322Z,95641.00
2018-09-21T17:15:37.090Z,95645.00
2018-09-21T17:18:07.688Z,95635.00
2018-09-21T17:20:39.399Z,95656.00
2018-09-21T17:23:21.051Z,95657.00
2018-09-21T17:26:08.482Z,95571.00
2018-09-21T17:31:38.700Z,95681.00
2018-09-21T17:34:13.665Z,95685.00
2018-09-21T17:36:53.947Z,95677.00
2018-09-21T17:39:27.555Z,95669.00
2018-09-21T17:41:59.614Z,95681.00
2018-09-21T17:44:34.983Z,95690.00
2018-09-21T17:47:39.491Z,95702.00
2018-09-21T17:50:20.230Z,95718.00
2018-09-21T17:52:54.261Z,95711.00
2018-09-21T17:55:31.574Z,95723.00
2018-09-21T17:58:02.045Z,95733.00
2018-09-21T18:00:33.563Z,95739.00
2018-09-21T18:03:04.410Z,95750.00
2018-09-21T18:05:36.387Z,95772.00
2018-09-21T18:08:07.022Z,95747.00
2018-09-21T18:10:37.450Z,95760.00
2018-09-21T18:13:07.993Z,95756.00
2018-09-21T18:15:38.459Z,95755.00
2018-09-21T18:18:08.982Z,95762.00
2018-09-21T18:20:39.693Z,95757.00
2018-09-21T18:23:12.654Z,95758.00
2018-09-21T18:26:04.649Z,95771.00
2018-09-21T18:29:01.552Z,95785.00
2018-09-21T18:31:37.856Z,95771.00
2018-09-21T18:34:15.745Z,95779.00
2018-09-21T18:36:47.350Z,95768.00
2018-09-21T18:39:20.919Z,95772.00
2018-09-21T18:41:58.529Z,95759.00
2018-09-21T18:44:31.567Z,95780.00
2018-09-21T18:47:02.391Z,95772.00
2018-09-21T18:49:32.718Z,95794.00
2018-09-21T18:52:03.059Z,95804.00
2018-09-21T18:54:33.576Z,95800.00
2018-09-21T18:57:04.389Z,95798.00
2018-09-21T18:59:39.152Z,95821.00
2018-09-21T19:02:12.207Z,95829.00
2018-09-21T19:04:42.946Z,95836.00
2018-09-21T19:07:23.153Z,95838.00
2018-09-21T19:10:00.051Z,95842.00
2018-09-21T19:12:36.591Z,95074.00
2018-09-21T19:15:07.310Z,95846.00
2018-09-21T19:17:37.677Z,95833.00
2018-09-21T19:20:18.763Z,95837.00
2018-09-21T19:22:49.389Z,95839.00
2018-09-21T19:25:22.270Z,95857.00
2018-09-21T19:27:52.764Z,95862.00
2018-09-21T19:30:23.313Z,95852.00
2018-09-21T19:32:53.675Z,95865.00
2018-09-21T19:35:24.087Z,95881.00
2018-09-21T19:37:54.979Z,95888.00
2018-09-21T19:40:25.364Z,95893.00
2018-09-21T19:42:56.479Z,95893.00
2018-09-21T19:45:27.258Z,95905.00
2018-09-21T19:47:58.404Z,95920.00
2018-09-21T19:50:30.943Z,95920.00
2018-09-21T19:53:04.532Z,95917.00
2018-09-21T19:55:37.529Z,95919.00
2018-09-21T19:58:16.962Z,95920.00
2018-09-21T20:00:51.469Z,95908.00
2018-09-21T20:03:23.596Z,95915.00
2018-09-21T20:05:55.067Z,95926.00
2018-09-21T20:08:26.430Z,95920.00
2018-09-21T20:10:56.874Z,95914.00
2018-09-21T20:13:28.336Z,95920.00
2018-09-21T20:16:00.044Z,95926.00
2018-09-21T20:18:36.632Z,95926.00
2018-09-21T20:21:10.024Z,95935.00
2018-09-21T20:23:41.123Z,95920.00
2018-09-21T20:29:21.045Z,95931.00
2018-09-21T20:32:00.760Z,95929.00
2018-09-21T20:34:34.577Z,95941.00
2018-09-21T20:37:06.369Z,95965.00
2018-09-21T20:39:39.614Z,95978.00
2018-09-21T20:42:36.826Z,95978.00
2018-09-21T20:45:09.493Z,95981.00
2018-09-21T20:47:41.007Z,95988.00
2018-09-21T20:50:12.512Z,95979.00
2018-09-21T20:52:43.759Z,96010.00
2018-09-21T20:55:14.185Z,95997.00
2018-09-21T20:57:46.797Z,96002.00
2018-09-21T21:06:31.917Z,95913.00
2018-09-21T21:09:02.350Z,96002.00
2018-09-21T21:11:32.646Z,95989.00
2018-09-21T21:14:03.412Z,95890.00
2018-09-21T21:16:33.833Z,95998.00
2018-09-21T21:19:04.382Z,96012.00
2018-09-21T21:21:34.730Z,96021.00
2018-09-21T21:24:05.053Z,96015.00
2018-09-21T21:26:35.433Z,96014.00
2018-09-21T21:29:06.294Z,96015.00
2018-09-21T21:31:36.662Z,96016.00
2018-09-21T21:34:07.498Z,96024.00
2018-09-21T21:36:38.012Z,96026.00
2018-09-21T21:39:10.140Z,96026.00
2018-09-21T21:41:40.713Z,96033.00
2018-09-21T21:44:12.130Z,96046.00
2018-09-21T21:46:42.546Z,96044.00
2018-09-21T21:49:17.631Z,96057.00
2018-09-21T21:51:48.215Z,96051.00
2018-09-21T21:54:18.636Z,96057.00
2018-09-21T21:56:49.050Z,96081.00
2018-09-21T21:59:19.675Z,96072.00
2018-09-21T22:01:50.092Z,96072.00
2018-09-21T22:04:20.557Z,96068.00
2018-09-21T22:06:51.105Z,96067.00
2018-09-21T22:09:21.453Z,95983.00
2018-09-21T22:11:57.232Z,96076.00
2018-09-21T22:14:28.154Z,96074.00
2018-09-21T22:16:59.125Z,96078.00
2018-09-21T22:19:29.482Z,96082.00
2018-09-21T22:22:00.133Z,96088.00
2018-09-21T22:24:31.121Z,96097.00
2018-09-21T22:27:01.392Z,96100.00
2018-09-21T22:29:32.149Z,96079.00
2018-09-21T22:32:02.538Z,96103.00
2018-09-21T22:34:32.947Z,96097.00
2018-09-21T22:37:03.641Z,96121.00
2018-09-21T22:39:33.965Z,96134.00
2018-09-21T22:42:05.029Z,96132.00
2018-09-21T22:44:35.477Z,96124.00
2018-09-21T22:47:06.279Z,96127.00
2018-09-21T22:49:37.067Z,96129.00
2018-09-21T22:52:08.143Z,96133.00
2018-09-21T22:54:38.536Z,96142.00
2018-09-21T22:57:10.086Z,96146.00
2018-09-21T22:59:42.726Z,96134.00
2018-09-21T23:02:13.180Z,96135.00
2018-09-21T23:04:45.314Z,95894.00
2018-09-21T23:07:17.878Z,96144.00
2018-09-21T23:09:48.985Z,96150.00
2018-09-21T23:12:20.207Z,96159.00
2018-09-21T23:14:50.746Z,96159.00
2018-09-21T23:17:22.362Z,96160.00
2018-09-21T23:19:52.670Z,96163.00
2018-09-21T23:22:23.071Z,96163.00
2018-09-21T23:24:53.374Z,96165.00
2018-09-21T23:27:23.673Z,96178.00
2018-09-21T23:29:54.031Z,96174.00
2018-09-21T23:32:24.650Z,96180.00
2018-09-21T23:34:55.005Z,96179.00
2018-09-21T23:37:25.829Z,96170.00
2018-09-21T23:39:56.686Z,96170.00
2018-09-21T23:42:27.015Z,96164.00
2018-09-21T23:44:57.370Z,96167.00
2018-09-21T23:47:27.837Z,96173.00
2018-09-21T23:49:58.414Z,96184.00
2018-09-21T23:52:28.978Z,96183.00
2018-09-21T23:54:59.739Z,96187.00
2018-09-21T23:57:30.066Z,96184.00
